Normal, Illinois
Current Conditions -  °F | °C
As of 6:56 AM on Saturday 01 Nov 2014 (Local Time) from KBMI Reporting Station
Clear Clear  
Wind Chill: 17°   Ceiling: Unl
Heat Index: 28°   Visibility: 10mi
Dew Point: 22°   Wind: 15mph
Humidity: 78%   Direction: 340°NNW
Pressure: 30.4"   Gusts: NA
Location:  40.51°N, 88.99°W
Report Text: KBMI 011156Z 34013KT 10SM CLR M02/M06 A3040 RMK AO2 52013 T10221055 10000 21022 SLP312
Loading
Personal Weather Stations






























Interactive Weather Map
Tropical Storm Tracking
New forecast layout! Learn more

10-Day Weather Forecast

Advertisements
Track Severe Weather on mobile